Gluckstadt, Mississippi
Current Conditions -  °F | °C
As of 5:53 PM on Sunday 21 Dec 2014 (Local Time) from KHKS Reporting Station
Clear Clear  
Wind Chill: 11°   Ceiling: Unl
Heat Index: 11°   Visibility: 10mi
Dew Point:   Wind: 6mph
Humidity: 80%   Direction: 120°ESE
Pressure: 30"   Gusts: NA
Location:  32.5032°N, 90.1424°W
Report Text: KHKS 212353Z 12005KT 10SM CLR 11/08 A3000 RMK AO2 SLP154 T01110078 10161 20111 57004
Loading
Personal Weather Stations






























Interactive Weather Map New forecast layout! Learn more

10-Day Weather Forecast

Advertisements
Track Severe Weather on mobile